PAA2522 KDRO-KDEN
Flight info
| Callsign | PAA2522 |
|---|---|
| Flight time | N/A |
| Altitude | 19000 |
| Route | RESER WUNZE SSKII4 |
| Aircraft | DC6/M-SDE1FGHIRWXY/S |
Departure
| Time | N/A |
|---|---|
| Airport | Durango La Plata County Airport (KDRO) |
Arrival
| Time | 2026-05-05 22:14 |
|---|---|
| Airport | Denver International Airport (KDEN) |
| Time | Latitude | Longitude | Altitude | Speed | Heading |
|---|---|---|---|---|---|
| 2026-05-05 21:46 | 38.88388 | -106.32206 | 18851 ft | 282 kts | 20° |
| 2026-05-05 21:46 | 38.90153 | -106.31124 | 18853 ft | 281 kts | 19° |
| 2026-05-05 21:46 | 38.91928 | -106.30038 | 18841 ft | 283 kts | 20° |
| 2026-05-05 21:46 | 38.93707 | -106.28950 | 18846 ft | 283 kts | 20° |
| 2026-05-05 21:47 | 38.95478 | -106.27860 | 18836 ft | 281 kts | 19° |
| 2026-05-05 21:47 | 38.97240 | -106.26786 | 18820 ft | 280 kts | 20° |
| 2026-05-05 21:47 | 38.98998 | -106.25711 | 18808 ft | 279 kts | 20° |
| 2026-05-05 21:47 | 39.00753 | -106.24634 | 18789 ft | 280 kts | 20° |
| 2026-05-05 21:48 | 39.02508 | -106.23555 | 18848 ft | 280 kts | 19° |
| 2026-05-05 21:48 | 39.04242 | -106.22488 | 18869 ft | 281 kts | 19° |
| 2026-05-05 21:48 | 39.06015 | -106.21400 | 18882 ft | 283 kts | 20° |
| 2026-05-05 21:48 | 39.07795 | -106.20309 | 18896 ft | 284 kts | 20° |
| 2026-05-05 21:49 | 39.09576 | -106.19211 | 18910 ft | 284 kts | 20° |
| 2026-05-05 21:49 | 39.11359 | -106.18112 | 18918 ft | 284 kts | 20° |
| 2026-05-05 21:49 | 39.13141 | -106.17021 | 18932 ft | 284 kts | 20° |
| 2026-05-05 21:49 | 39.14841 | -106.15702 | 18884 ft | 292 kts | 39° |
| 2026-05-05 21:50 | 39.15971 | -106.13531 | 18909 ft | 293 kts | 65° |
| 2026-05-05 21:50 | 39.16702 | -106.11090 | 18892 ft | 291 kts | 66° |
| 2026-05-05 21:50 | 39.17583 | -106.08738 | 18874 ft | 291 kts | 61° |
| 2026-05-05 21:50 | 39.18493 | -106.06409 | 18850 ft | 292 kts | 63° |
| 2026-05-05 21:51 | 39.19337 | -106.04024 | 18833 ft | 292 kts | 65° |
| 2026-05-05 21:51 | 39.20162 | -106.01638 | 18816 ft | 292 kts | 64° |
| 2026-05-05 21:51 | 39.21018 | -105.99263 | 18792 ft | 292 kts | 64° |
| 2026-05-05 21:51 | 39.21880 | -105.96894 | 18771 ft | 292 kts | 64° |
| 2026-05-05 21:52 | 39.23580 | -105.92126 | 18735 ft | 293 kts | 64° |
| 2026-05-05 21:52 | 39.24436 | -105.89741 | 18721 ft | 293 kts | 64° |
| 2026-05-05 21:52 | 39.25300 | -105.87358 | 18707 ft | 293 kts | 64° |
| 2026-05-05 21:53 | 39.26162 | -105.84975 | 18694 ft | 293 kts | 64° |
| 2026-05-05 21:53 | 39.27016 | -105.82594 | 18695 ft | 292 kts | 64° |
| 2026-05-05 21:53 | 39.27869 | -105.80221 | 18706 ft | 292 kts | 64° |
| 2026-05-05 21:53 | 39.28724 | -105.77849 | 18712 ft | 291 kts | 64° |
| 2026-05-05 21:54 | 39.29577 | -105.75479 | 18720 ft | 291 kts | 64° |
| 2026-05-05 21:54 | 39.30425 | -105.73111 | 18731 ft | 290 kts | 65° |
| 2026-05-05 21:54 | 39.31274 | -105.70742 | 18736 ft | 290 kts | 64° |
| 2026-05-05 21:54 | 39.32110 | -105.68410 | 18749 ft | 290 kts | 64° |
| 2026-05-05 21:55 | 39.32959 | -105.66047 | 18760 ft | 291 kts | 64° |
| 2026-05-05 21:55 | 39.33825 | -105.63686 | 18770 ft | 291 kts | 64° |
| 2026-05-05 21:55 | 39.34696 | -105.61322 | 18788 ft | 291 kts | 64° |
| 2026-05-05 21:55 | 39.35562 | -105.58949 | 18802 ft | 293 kts | 64° |
| 2026-05-05 21:56 | 39.36427 | -105.56569 | 18811 ft | 292 kts | 64° |
| 2026-05-05 21:56 | 39.37291 | -105.54201 | 18822 ft | 292 kts | 64° |
| 2026-05-05 21:56 | 39.38152 | -105.51834 | 18833 ft | 291 kts | 64° |
| 2026-05-05 21:56 | 39.39009 | -105.49474 | 18842 ft | 290 kts | 64° |
| 2026-05-05 21:57 | 39.39868 | -105.47116 | 18847 ft | 290 kts | 64° |
| 2026-05-05 21:57 | 39.40729 | -105.44751 | 18864 ft | 291 kts | 64° |
| 2026-05-05 21:57 | 39.41559 | -105.42366 | 18851 ft | 290 kts | 69° |
| 2026-05-05 21:57 | 39.41793 | -105.39755 | 18353 ft | 299 kts | 99° |
| 2026-05-05 21:58 | 39.41603 | -105.37068 | 17991 ft | 301 kts | 94° |
| 2026-05-05 21:58 | 39.41675 | -105.34338 | 17613 ft | 306 kts | 88° |
| 2026-05-05 21:58 | 39.41781 | -105.31573 | 17242 ft | 310 kts | 90° |
| 2026-05-05 21:58 | 39.41778 | -105.28776 | 16900 ft | 312 kts | 92° |
| 2026-05-05 21:59 | 39.41757 | -105.25967 | 16543 ft | 313 kts | 91° |
| 2026-05-05 21:59 | 39.41773 | -105.23144 | 16229 ft | 314 kts | 90° |
| 2026-05-05 21:59 | 39.41807 | -105.20325 | 15947 ft | 313 kts | 91° |
| 2026-05-05 21:59 | 39.41820 | -105.17514 | 15656 ft | 312 kts | 91° |
| 2026-05-05 22:00 | 39.41823 | -105.14747 | 15334 ft | 311 kts | 91° |
| 2026-05-05 22:00 | 39.41834 | -105.11953 | 15003 ft | 311 kts | 91° |
| 2026-05-05 22:00 | 39.41850 | -105.09168 | 14702 ft | 309 kts | 91° |
| 2026-05-05 22:00 | 39.41860 | -105.06387 | 14242 ft | 311 kts | 91° |
| 2026-05-05 22:01 | 39.41868 | -105.03572 | 13711 ft | 315 kts | 91° |
| 2026-05-05 22:01 | 39.41876 | -105.00724 | 13121 ft | 317 kts | 91° |
| 2026-05-05 22:01 | 39.41887 | -104.97874 | 12549 ft | 316 kts | 91° |
| 2026-05-05 22:01 | 39.41894 | -104.95035 | 12001 ft | 314 kts | 91° |
| 2026-05-05 22:02 | 39.42055 | -104.92243 | 11447 ft | 310 kts | 82° |
| 2026-05-05 22:02 | 39.42362 | -104.89514 | 11092 ft | 301 kts | 84° |
| 2026-05-05 22:02 | 39.42574 | -104.86897 | 11058 ft | 283 kts | 86° |
| 2026-05-05 22:02 | 39.42766 | -104.84461 | 11049 ft | 269 kts | 85° |
| 2026-05-05 22:03 | 39.42978 | -104.82120 | 11047 ft | 256 kts | 85° |
| 2026-05-05 22:03 | 39.43182 | -104.79878 | 11044 ft | 245 kts | 86° |
| 2026-05-05 22:03 | 39.42904 | -104.77796 | 11014 ft | 230 kts | 121° |
| 2026-05-05 22:03 | 39.41801 | -104.76451 | 11025 ft | 214 kts | 158° |
| 2026-05-05 22:04 | 39.40394 | -104.76322 | 11035 ft | 201 kts | 198° |
| 2026-05-05 22:04 | 39.39203 | -104.77205 | 11058 ft | 196 kts | 207° |
| 2026-05-05 22:04 | 39.37840 | -104.77339 | 11042 ft | 207 kts | 165° |
| 2026-05-05 22:04 | 39.36689 | -104.76170 | 11011 ft | 222 kts | 125° |
| 2026-05-05 22:05 | 39.36329 | -104.74206 | 11004 ft | 235 kts | 88° |
| 2026-05-05 22:05 | 39.36944 | -104.72239 | 11020 ft | 243 kts | 53° |
| 2026-05-05 22:05 | 39.38068 | -104.70585 | 11017 ft | 247 kts | 49° |
| 2026-05-05 22:05 | 39.39263 | -104.68964 | 10998 ft | 251 kts | 40° |
| 2026-05-05 22:06 | 39.40810 | -104.67926 | 11018 ft | 250 kts | 22° |
| 2026-05-05 22:06 | 39.42429 | -104.67069 | 10759 ft | 253 kts | 22° |
| 2026-05-05 22:06 | 39.44090 | -104.66225 | 10414 ft | 259 kts | 21° |
| 2026-05-05 22:06 | 39.45784 | -104.65395 | 10092 ft | 262 kts | 22° |
| 2026-05-05 22:07 | 39.47499 | -104.64585 | 9762 ft | 263 kts | 21° |
| 2026-05-05 22:07 | 39.49200 | -104.63803 | 9405 ft | 263 kts | 21° |
| 2026-05-05 22:07 | 39.50948 | -104.63089 | 8892 ft | 268 kts | 15° |
| 2026-05-05 22:07 | 39.52785 | -104.62898 | 8857 ft | 258 kts | 359° |
| 2026-05-05 22:08 | 39.54496 | -104.63297 | 8943 ft | 244 kts | 343° |
| 2026-05-05 22:08 | 39.56050 | -104.64050 | 8973 ft | 233 kts | 341° |
| 2026-05-05 22:08 | 39.57559 | -104.64726 | 8976 ft | 226 kts | 342° |
| 2026-05-05 22:08 | 39.59028 | -104.65377 | 8978 ft | 221 kts | 342° |
| 2026-05-05 22:09 | 39.60466 | -104.66016 | 8985 ft | 217 kts | 342° |
| 2026-05-05 22:09 | 39.61877 | -104.66643 | 8981 ft | 213 kts | 342° |
| 2026-05-05 22:09 | 39.63266 | -104.67260 | 8996 ft | 210 kts | 342° |
| 2026-05-05 22:09 | 39.64634 | -104.67872 | 8991 ft | 206 kts | 343° |
| 2026-05-05 22:10 | 39.66034 | -104.68062 | 8974 ft | 200 kts | 12° |
| 2026-05-05 22:10 | 39.67274 | -104.67371 | 9011 ft | 192 kts | 25° |
| 2026-05-05 22:10 | 39.68555 | -104.66886 | 9007 ft | 192 kts | 16° |
| 2026-05-05 22:10 | 39.69836 | -104.66416 | 8923 ft | 194 kts | 22° |
| 2026-05-05 22:11 | 39.71186 | -104.66034 | 8670 ft | 206 kts | 3° |
| 2026-05-05 22:11 | 39.72641 | -104.66147 | 8514 ft | 211 kts | 357° |
| 2026-05-05 22:11 | 39.74037 | -104.66203 | 8495 ft | 189 kts | 4° |
| 2026-05-05 22:11 | 39.75308 | -104.66135 | 8352 ft | 178 kts | 4° |
| 2026-05-05 22:12 | 39.76500 | -104.66130 | 8150 ft | 169 kts | 2° |
| 2026-05-05 22:12 | 39.77638 | -104.66122 | 7907 ft | 159 kts | 4° |
| 2026-05-05 22:12 | 39.78723 | -104.66098 | 7666 ft | 153 kts | 2° |
| 2026-05-05 22:12 | 39.79773 | -104.66100 | 7421 ft | 149 kts | 4° |
| 2026-05-05 22:13 | 39.80800 | -104.66071 | 7187 ft | 145 kts | 3° |
| 2026-05-05 22:13 | 39.81478 | -104.66077 | 6802 ft | 146 kts | 2° |
| 2026-05-05 22:13 | 39.82484 | -104.66102 | 6148 ft | 144 kts | 2° |
| 2026-05-05 22:13 | 39.83470 | -104.66067 | 5562 ft | 136 kts | 4° |
| 2026-05-05 22:14 | 39.84302 | -104.66053 | 5412 ft | 104 kts | 7° |
| 2026-05-05 22:14 | 39.84885 | -104.66034 | 5400 ft | 64 kts | 3° |
| 2026-05-05 22:14 | 39.85235 | -104.66113 | 5393 ft | 42 kts | 329° |
| 2026-05-05 22:14 | 39.85412 | -104.66234 | 5393 ft | 21 kts | 347° |
| 2026-05-05 22:15 | 39.85548 | -104.66241 | 5393 ft | 18 kts | 340° |
| 2026-05-05 22:15 | 39.85585 | -104.66385 | 5390 ft | 20 kts | 270° |
| 2026-05-05 22:15 | 39.85583 | -104.66569 | 5386 ft | 20 kts | 270° |
| 2026-05-05 22:15 | 39.85586 | -104.66741 | 5386 ft | 19 kts | 272° |